Time;durP1;ratioP1;P1;durP2;ratioP2;P2;SDS_P1;SDS_P2;PMS_P1;PMS_P2;Temp;Humidity;BMP_temperature;BMP_pressure;BME280_temperature;BME280_humidity;BME280_pressure;Samples;Min_cycle;Max_cycle;Signal;HPM_P1;HPM_P2
2021/11/29 00:00:31;;;;;;;4.05;2.80;;;2.80;99.90;;;;;;5013611;28;20030;-76
2021/11/29 00:03:07;;;;;;;9.50;3.17;;;2.80;99.90;;;;;;5013986;28;20079;-75
2021/11/29 00:05:33;;;;;;;4.63;2.50;;;2.80;99.90;;;;;;5012395;28;20022;-75
2021/11/29 00:08:00;;;;;;;9.23;3.65;;;2.80;99.90;;;;;;5012642;28;20029;-75
2021/11/29 00:10:27;;;;;;;5.03;2.50;;;2.90;99.90;;;;;;5012156;28;20417;-76
2021/11/29 00:12:53;;;;;;;7.28;2.63;;;2.90;99.90;;;;;;5013516;28;20383;-75
2021/11/29 00:15:18;;;;;;;5.00;2.75;;;2.90;99.90;;;;;;5013643;28;20084;-76
2021/11/29 00:17:44;;;;;;;5.50;2.67;;;2.90;99.90;;;;;;5013337;28;20033;-76
2021/11/29 00:20:11;;;;;;;7.00;2.85;;;2.90;99.90;;;;;;5012455;28;20021;-76
2021/11/29 00:22:38;;;;;;;8.90;3.10;;;2.90;99.90;;;;;;5013151;28;20032;-75
2021/11/29 00:25:04;;;;;;;6.13;2.70;;;2.90;99.90;;;;;;5012538;28;20030;-76
2021/11/29 00:27:30;;;;;;;4.80;2.53;;;2.90;99.90;;;;;;5012605;28;20097;-76
2021/11/29 00:29:56;;;;;;;5.45;2.58;;;3.00;99.90;;;;;;5017190;28;20149;-76
2021/11/29 00:32:22;;;;;;;7.00;2.80;;;3.00;99.90;;;;;;5012389;28;20022;-76
2021/11/29 00:34:48;;;;;;;5.85;2.78;;;3.10;99.90;;;;;;5014011;28;20516;-76
2021/11/29 00:37:13;;;;;;;5.63;2.25;;;3.00;99.90;;;;;;5013393;28;20386;-75
2021/11/29 00:39:39;;;;;;;3.70;2.00;;;3.10;99.90;;;;;;5012419;28;20470;-76
2021/11/29 00:42:05;;;;;;;5.95;2.25;;;3.10;99.90;;;;;;5013060;28;20101;-75
2021/11/29 00:44:30;;;;;;;6.65;2.03;;;3.10;99.90;;;;;;5012476;28;20037;-75
2021/11/29 00:46:56;;;;;;;4.60;1.73;;;3.10;99.90;;;;;;5011923;28;20044;-75
2021/11/29 00:49:22;;;;;;;4.88;2.17;;;3.00;99.90;;;;;;5011541;28;20076;-75
2021/11/29 00:51:48;;;;;;;6.88;2.10;;;3.00;99.90;;;;;;5013394;28;20113;-75
2021/11/29 00:54:14;;;;;;;2.55;1.70;;;3.00;99.90;;;;;;5012865;28;20029;-75
2021/11/29 00:56:40;;;;;;;4.32;2.10;;;3.00;99.90;;;;;;5013293;28;20363;-74
2021/11/29 00:59:06;;;;;;;3.10;1.55;;;3.00;99.90;;;;;;5012783;28;20022;-75
2021/11/29 01:01:32;;;;;;;3.75;1.90;;;3.00;99.90;;;;;;5012683;28;20025;-75
2021/11/29 01:03:57;;;;;;;3.60;1.77;;;3.00;99.90;;;;;;5011765;28;20022;-76
2021/11/29 01:06:24;;;;;;;4.00;1.90;;;3.00;99.90;;;;;;5012263;28;20033;-75
2021/11/29 01:08:49;;;;;;;4.68;3.10;;;3.00;99.90;;;;;;5012956;28;20041;-75
2021/11/29 01:11:15;;;;;;;3.47;1.35;;;3.00;99.90;;;;;;5013134;28;20458;-75
2021/11/29 01:13:41;;;;;;;2.15;1.30;;;3.00;99.90;;;;;;5012799;28;20037;-75
2021/11/29 01:16:07;;;;;;;1.85;1.20;;;2.90;99.90;;;;;;5012794;28;20046;-75
2021/11/29 01:18:33;;;;;;;3.92;1.30;;;2.90;99.90;;;;;;5012374;28;20025;-75
2021/11/29 01:20:59;;;;;;;2.65;1.48;;;2.90;99.90;;;;;;5012975;28;20073;-75
2021/11/29 01:23:25;;;;;;;3.63;1.52;;;2.90;99.90;;;;;;5010611;28;20046;-75
2021/11/29 01:25:53;;;;;;;3.05;1.02;;;2.90;99.90;;;;;;5012750;28;20080;-75
2021/11/29 01:28:20;;;;;;;3.45;1.40;;;2.90;99.90;;;;;;5010927;28;20018;-75
2021/11/29 01:30:45;;;;;;;4.05;1.33;;;3.00;99.90;;;;;;5012260;28;20026;-75
2021/11/29 01:33:11;;;;;;;1.20;0.95;;;2.90;99.90;;;;;;5012377;28;20532;-75
2021/11/29 01:35:38;;;;;;;2.22;1.27;;;2.90;99.90;;;;;;5012422;28;20033;-75
2021/11/29 01:38:04;;;;;;;2.47;1.13;;;3.00;99.90;;;;;;5012654;28;20048;-75
2021/11/29 01:40:30;;;;;;;1.60;0.90;;;2.90;99.90;;;;;;5012081;28;20101;-74
2021/11/29 01:43:07;;;;;;;2.53;0.98;;;3.00;99.90;;;;;;5012557;28;20026;-75
2021/11/29 01:45:36;;;;;;;4.57;1.25;;;3.00;99.90;;;;;;5012194;28;20466;-75
2021/11/29 01:48:02;;;;;;;1.38;0.90;;;2.90;99.90;;;;;;5011053;28;20062;-75
2021/11/29 01:50:29;;;;;;;1.75;1.00;;;2.90;99.90;;;;;;5011935;28;20026;-75
2021/11/29 01:52:54;;;;;;;0.77;0.70;;;2.90;99.90;;;;;;5012376;28;20101;-75
2021/11/29 01:55:21;;;;;;;1.60;1.10;;;2.90;99.90;;;;;;5013689;28;20105;-75
2021/11/29 01:57:47;;;;;;;3.67;1.42;;;2.90;99.90;;;;;;5014814;28;20033;-75
2021/11/29 02:00:21;;;;;;;1.83;0.82;;;3.00;99.90;;;;;;5016280;28;20029;-75
2021/11/29 02:02:52;;;;;;;0.88;0.77;;;2.90;99.90;;;;;;5016026;28;20101;-75
2021/11/29 02:05:19;;;;;;;2.55;1.20;;;2.90;99.90;;;;;;5015973;28;20305;-76
2021/11/29 02:07:45;;;;;;;2.08;1.10;;;2.90;99.90;;;;;;5014736;28;20381;-75
2021/11/29 02:10:11;;;;;;;1.20;0.90;;;2.90;99.90;;;;;;5016263;28;20496;-75
2021/11/29 02:12:37;;;;;;;2.13;1.10;;;2.90;99.90;;;;;;5015652;28;20025;-75
2021/11/29 02:15:05;;;;;;;6.22;1.45;;;2.90;99.90;;;;;;5014722;28;20022;-75
2021/11/29 02:17:31;;;;;;;1.92;1.17;;;2.90;99.90;;;;;;5015255;28;20029;-76
2021/11/29 02:19:57;;;;;;;1.73;1.10;;;2.90;99.90;;;;;;5016236;28;20092;-76
2021/11/29 02:22:23;;;;;;;3.60;1.40;;;2.90;99.90;;;;;;5015821;28;20069;-75
2021/11/29 02:24:49;;;;;;;4.70;1.40;;;2.90;99.90;;;;;;5015499;28;20455;-75
2021/11/29 02:27:14;;;;;;;4.60;1.30;;;2.90;99.90;;;;;;5015849;28;20037;-75
2021/11/29 02:29:41;;;;;;;2.25;1.00;;;2.90;99.90;;;;;;5015324;28;20069;-75
2021/11/29 02:32:07;;;;;;;1.98;1.00;;;2.90;99.90;;;;;;5015740;28;20030;-75
2021/11/29 02:34:33;;;;;;;3.25;1.00;;;2.90;99.90;;;;;;5014956;28;20149;-77
2021/11/29 02:37:02;;;;;;;2.63;1.60;;;2.90;99.90;;;;;;5015608;28;20034;-76
2021/11/29 02:39:28;;;;;;;1.73;1.30;;;2.90;99.90;;;;;;5015214;28;20041;-76
2021/11/29 02:41:56;;;;;;;3.10;1.10;;;2.80;99.90;;;;;;5015776;28;20173;-76
2021/11/29 02:44:22;;;;;;;1.52;0.95;;;2.80;99.90;;;;;;5015229;28;20026;-76
2021/11/29 02:46:48;;;;;;;1.10;0.95;;;2.80;99.90;;;;;;5015499;28;20026;-76
2021/11/29 02:49:14;;;;;;;2.22;1.27;;;2.80;99.90;;;;;;5015726;28;20477;-76
2021/11/29 02:51:46;;;;;;;3.45;1.20;;;2.80;99.90;;;;;;5014989;28;20076;-76
2021/11/29 02:54:16;;;;;;;2.28;1.08;;;2.80;99.90;;;;;;5014661;28;20022;-76
2021/11/29 02:56:45;;;;;;;1.33;1.10;;;2.80;99.90;;;;;;5014657;28;20029;-76
2021/11/29 02:59:14;;;;;;;2.60;1.05;;;2.80;99.90;;;;;;5015081;28;20018;-77
2021/11/29 03:01:41;;;;;;;1.67;1.30;;;2.80;99.90;;;;;;5014859;28;20105;-76
2021/11/29 03:04:07;;;;;;;1.25;1.00;;;2.80;99.90;;;;;;5015292;28;20029;-77
2021/11/29 03:06:32;;;;;;;3.72;1.20;;;2.70;99.90;;;;;;5014592;28;20081;-77
2021/11/29 03:08:58;;;;;;;3.42;1.10;;;2.70;99.90;;;;;;5015181;28;20049;-77
2021/11/29 03:11:26;;;;;;;1.77;1.17;;;2.70;99.90;;;;;;5014889;28;20126;-76
2021/11/29 03:13:52;;;;;;;2.17;1.10;;;2.70;99.90;;;;;;5014610;28;20365;-77
2021/11/29 03:16:18;;;;;;;1.50;1.08;;;2.70;99.90;;;;;;5014881;28;20036;-76
2021/11/29 03:18:45;;;;;;;1.67;0.80;;;2.70;99.90;;;;;;5014432;28;20033;-76
2021/11/29 03:21:15;;;;;;;2.65;0.77;;;2.60;99.90;;;;;;5013509;28;20084;-76
2021/11/29 03:23:42;;;;;;;1.40;1.10;;;2.70;99.90;;;;;;5012821;28;20398;-76
2021/11/29 03:26:10;;;;;;;1.52;0.90;;;2.70;99.90;;;;;;5013408;28;20033;-76
2021/11/29 03:28:41;;;;;;;1.20;1.10;;;2.60;99.90;;;;;;5014244;28;20088;-76
2021/11/29 03:31:09;;;;;;;0.90;0.90;;;2.60;99.90;;;;;;5013375;28;20079;-76
2021/11/29 03:33:36;;;;;;;3.55;0.90;;;2.60;99.90;;;;;;5014178;28;20117;-76
2021/11/29 03:36:03;;;;;;;2.45;1.10;;;2.60;99.90;;;;;;5014461;28;20040;-76
2021/11/29 03:38:29;;;;;;;4.07;1.10;;;2.60;99.90;;;;;;5014026;28;20065;-76
2021/11/29 03:40:56;;;;;;;0.85;0.80;;;2.60;99.90;;;;;;5014416;28;20032;-76
2021/11/29 03:43:22;;;;;;;2.42;1.00;;;2.70;99.90;;;;;;5014446;28;20026;-76
2021/11/29 03:45:47;;;;;;;2.15;1.00;;;2.60;99.90;;;;;;5013927;28;20084;-76
2021/11/29 03:48:13;;;;;;;1.23;1.10;;;2.70;99.90;;;;;;5013162;28;20025;-76
2021/11/29 03:50:39;;;;;;;1.15;0.90;;;2.60;99.90;;;;;;5013862;28;20022;-76
2021/11/29 03:53:04;;;;;;;1.27;0.73;;;2.60;99.90;;;;;;5013081;28;20061;-76
2021/11/29 03:55:30;;;;;;;1.30;0.77;;;2.70;99.90;;;;;;5013872;28;20422;-76
2021/11/29 03:57:56;;;;;;;0.95;0.77;;;2.70;99.90;;;;;;5013833;28;20040;-76
2021/11/29 04:00:22;;;;;;;3.30;0.90;;;2.70;99.90;;;;;;5014138;28;20430;-76
2021/11/29 04:02:47;;;;;;;2.25;0.90;;;2.70;99.90;;;;;;5012393;28;20458;-76
2021/11/29 04:05:14;;;;;;;1.30;0.88;;;2.70;99.90;;;;;;5012722;28;20021;-76
2021/11/29 04:07:39;;;;;;;3.17;1.27;;;2.60;99.90;;;;;;5013223;28;20406;-76
2021/11/29 04:10:06;;;;;;;3.38;1.05;;;2.60;99.90;;;;;;5013959;28;20021;-76
2021/11/29 04:12:32;;;;;;;1.35;0.93;;;2.60;99.90;;;;;;5011946;28;20025;-76
2021/11/29 04:14:57;;;;;;;6.65;1.05;;;2.60;99.90;;;;;;5013835;28;20030;-76
2021/11/29 04:17:23;;;;;;;2.00;1.27;;;2.60;99.90;;;;;;5012910;28;20036;-76
2021/11/29 04:19:48;;;;;;;3.65;1.40;;;2.60;99.90;;;;;;5013054;28;20360;-76
2021/11/29 04:22:15;;;;;;;1.25;0.90;;;2.50;99.90;;;;;;5012453;28;20034;-76
2021/11/29 04:24:46;;;;;;;2.25;1.20;;;2.50;99.90;;;;;;5013236;28;20131;-75
2021/11/29 04:27:11;;;;;;;2.95;1.70;;;2.50;99.90;;;;;;5012302;28;20025;-75
2021/11/29 04:29:42;;;;;;;2.65;1.50;;;2.50;99.90;;;;;;5013221;28;20451;-75
2021/11/29 04:32:09;;;;;;;4.15;1.77;;;2.50;99.90;;;;;;5013564;28;20050;-75
2021/11/29 04:34:35;;;;;;;3.55;1.60;;;2.40;99.90;;;;;;5011719;28;20489;-75
2021/11/29 04:37:02;;;;;;;3.75;1.88;;;2.40;99.90;;;;;;5013110;28;20026;-75
2021/11/29 04:39:30;;;;;;;6.65;1.75;;;2.40;99.90;;;;;;5013399;28;20018;-75
2021/11/29 04:41:56;;;;;;;5.15;1.80;;;2.50;99.90;;;;;;5011864;28;20029;-75
2021/11/29 04:44:22;;;;;;;2.28;1.30;;;2.50;99.90;;;;;;5013523;28;20080;-75
2021/11/29 04:46:47;;;;;;;4.70;1.85;;;2.50;99.90;;;;;;5011334;28;20025;-75
2021/11/29 04:49:13;;;;;;;2.60;1.40;;;2.50;99.90;;;;;;5013160;28;20363;-75
2021/11/29 04:51:39;;;;;;;3.70;1.85;;;2.50;99.90;;;;;;5012813;28;20459;-76
2021/11/29 04:54:05;;;;;;;3.83;1.55;;;2.50;99.90;;;;;;5012964;28;20026;-75
2021/11/29 04:56:32;;;;;;;3.13;1.63;;;2.50;99.90;;;;;;5012749;28;20029;-75
2021/11/29 04:58:57;;;;;;;4.63;1.88;;;2.60;99.90;;;;;;5013081;28;20080;-75
2021/11/29 05:01:25;;;;;;;3.70;1.83;;;2.50;99.90;;;;;;5012837;28;20025;-77
2021/11/29 05:03:51;;;;;;;2.70;1.40;;;2.60;99.90;;;;;;5011096;28;20029;-76
2021/11/29 05:06:19;;;;;;;4.28;2.15;;;2.60;99.90;;;;;;5012762;28;20053;-75
2021/11/29 05:08:44;;;;;;;6.38;1.73;;;2.60;99.90;;;;;;5012242;28;20510;-76
2021/11/29 05:11:10;;;;;;;3.03;1.48;;;2.50;99.90;;;;;;5013423;28;20104;-74
2021/11/29 05:13:36;;;;;;;4.50;1.90;;;2.50;99.90;;;;;;5011093;28;20064;-76
2021/11/29 05:16:02;;;;;;;3.13;1.70;;;2.60;99.90;;;;;;5012404;28;20099;-74
2021/11/29 05:18:28;;;;;;;2.72;1.70;;;2.60;99.90;;;;;;5012530;28;20033;-76
2021/11/29 05:20:53;;;;;;;2.50;1.52;;;2.60;99.90;;;;;;5012322;28;20728;-76
2021/11/29 05:23:19;;;;;;;2.40;1.67;;;2.60;99.90;;;;;;5012710;28;20057;-76
2021/11/29 05:25:45;;;;;;;3.60;1.77;;;2.60;99.90;;;;;;5012352;28;20053;-76
2021/11/29 05:28:11;;;;;;;4.25;1.63;;;2.60;99.90;;;;;;5012699;28;20026;-76
2021/11/29 05:30:36;;;;;;;2.28;1.52;;;2.60;99.90;;;;;;5010561;28;20109;-75
2021/11/29 05:33:03;;;;;;;3.25;1.60;;;2.60;99.90;;;;;;5011681;28;20542;-76
2021/11/29 05:35:28;;;;;;;2.00;1.58;;;2.60;99.90;;;;;;5012712;28;20025;-75
2021/11/29 05:37:54;;;;;;;2.55;1.55;;;2.60;99.90;;;;;;5012039;28;20432;-75
2021/11/29 05:40:21;;;;;;;5.30;1.85;;;2.60;99.90;;;;;;5012205;28;20045;-74
2021/11/29 05:42:46;;;;;;;5.82;2.00;;;2.60;99.90;;;;;;5011753;28;20060;-75
2021/11/29 05:45:13;;;;;;;4.75;1.75;;;2.60;99.90;;;;;;5012543;28;20493;-75
2021/11/29 05:47:39;;;;;;;3.25;1.95;;;2.60;99.90;;;;;;5012026;28;20052;-75
2021/11/29 05:50:07;;;;;;;4.25;1.98;;;2.60;99.90;;;;;;5012470;28;20532;-75
2021/11/29 05:52:34;;;;;;;4.72;2.15;;;2.60;99.90;;;;;;5012542;28;20058;-75
2021/11/29 05:55:00;;;;;;;3.80;2.38;;;2.60;99.90;;;;;;5012189;28;20026;-75
2021/11/29 05:57:25;;;;;;;3.80;1.88;;;2.60;99.90;;;;;;5012102;28;20113;-75
2021/11/29 05:59:51;;;;;;;3.58;1.95;;;2.60;99.90;;;;;;5011964;28;20037;-75
2021/11/29 06:02:17;;;;;;;4.07;2.20;;;2.60;99.90;;;;;;5011032;28;20113;-76
2021/11/29 06:04:43;;;;;;;2.92;1.67;;;2.60;99.90;;;;;;5012216;28;20459;-75
2021/11/29 06:07:08;;;;;;;3.85;1.95;;;2.60;99.90;;;;;;5012036;28;20090;-75
2021/11/29 06:09:34;;;;;;;6.47;2.80;;;2.60;99.90;;;;;;5010972;28;20026;-75
2021/11/29 06:12:00;;;;;;;5.53;3.88;;;2.60;99.90;;;;;;5012115;28;20097;-74
2021/11/29 06:14:26;;;;;;;3.90;2.25;;;2.60;99.90;;;;;;5012192;28;20096;-74
2021/11/29 06:16:56;;;;;;;2.90;2.10;;;2.60;99.90;;;;;;5011704;28;20396;-74
2021/11/29 06:19:22;;;;;;;5.32;2.10;;;2.50;99.90;;;;;;5010850;28;20034;-75
2021/11/29 06:21:47;;;;;;;7.15;2.28;;;2.50;99.90;;;;;;5011810;28;20032;-75
2021/11/29 06:24:13;;;;;;;5.50;2.38;;;2.50;99.90;;;;;;5011729;28;20042;-75
2021/11/29 06:26:39;;;;;;;6.13;3.63;;;2.50;99.90;;;;;;5011939;28;20374;-75
2021/11/29 06:29:05;;;;;;;8.43;3.17;;;2.50;99.90;;;;;;5010804;28;20022;-75
2021/11/29 06:31:31;;;;;;;7.05;2.55;;;2.60;99.90;;;;;;5010603;28;20528;-75
2021/11/29 06:33:57;;;;;;;5.63;2.47;;;2.60;99.90;;;;;;5011609;28;20068;-75
2021/11/29 06:36:28;;;;;;;6.03;3.10;;;2.70;99.90;;;;;;5011940;28;20113;-76
2021/11/29 06:38:56;;;;;;;5.57;3.13;;;2.70;99.90;;;;;;5010333;28;20025;-76
2021/11/29 06:41:23;;;;;;;6.38;3.05;;;2.70;99.90;;;;;;5012312;28;20044;-76
2021/11/29 06:43:49;;;;;;;4.22;2.72;;;2.70;99.90;;;;;;5015082;28;20026;-76
2021/11/29 06:46:16;;;;;;;4.55;2.70;;;2.60;99.90;;;;;;5015440;28;20034;-75
2021/11/29 06:48:42;;;;;;;5.07;2.92;;;2.60;99.90;;;;;;5014913;28;20054;-75
2021/11/29 06:51:08;;;;;;;5.40;2.55;;;2.60;99.90;;;;;;5015361;28;20025;-75
2021/11/29 06:53:34;;;;;;;5.25;2.10;;;2.60;99.90;;;;;;5014085;28;20026;-75
2021/11/29 06:56:00;;;;;;;6.38;3.10;;;2.70;99.90;;;;;;5013486;28;20453;-75
2021/11/29 06:58:27;;;;;;;8.27;2.80;;;2.80;99.90;;;;;;5015189;28;20467;-76
2021/11/29 07:00:54;;;;;;;7.65;3.78;;;2.80;99.90;;;;;;5013508;28;20032;-75
2021/11/29 07:03:20;;;;;;;6.03;3.20;;;2.80;99.90;;;;;;5015246;28;20060;-75
2021/11/29 07:05:47;;;;;;;4.95;2.70;;;2.90;99.90;;;;;;5013280;28;20117;-76
2021/11/29 07:08:13;;;;;;;5.20;2.65;;;2.90;99.90;;;;;;5015187;28;20116;-75
2021/11/29 07:10:42;;;;;;;7.95;2.88;;;2.90;99.90;;;;;;5014973;28;20033;-75
2021/11/29 07:13:10;;;;;;;4.53;2.53;;;2.80;99.90;;;;;;5013598;28;20026;-76
2021/11/29 07:15:36;;;;;;;10.55;3.22;;;2.90;99.90;;;;;;5015201;28;20490;-75
2021/11/29 07:18:03;;;;;;;5.70;2.88;;;2.90;99.90;;;;;;5014120;28;20123;-75
2021/11/29 07:20:28;;;;;;;9.00;3.13;;;3.00;99.90;;;;;;5014474;28;20081;-73
2021/11/29 07:22:54;;;;;;;6.50;2.85;;;3.10;99.90;;;;;;5014075;28;20061;-75
2021/11/29 07:25:20;;;;;;;7.53;3.20;;;3.10;99.90;;;;;;5013413;28;20111;-75
2021/11/29 07:27:46;;;;;;;8.00;3.47;;;3.20;99.90;;;;;;5014264;28;20046;-74
2021/11/29 07:30:15;;;;;;;10.02;3.53;;;3.20;99.90;;;;;;5014410;28;20022;-74
2021/11/29 07:32:41;;;;;;;8.10;3.15;;;3.30;99.90;;;;;;5014610;28;20022;-74
2021/11/29 07:35:08;;;;;;;7.07;2.92;;;3.40;99.90;;;;;;5014002;28;20025;-75
2021/11/29 07:37:34;;;;;;;6.32;3.00;;;3.40;99.90;;;;;;5014583;28;20084;-74
2021/11/29 07:40:02;;;;;;;6.30;2.60;;;3.40;99.90;;;;;;5012353;28;20026;-75
2021/11/29 07:42:28;;;;;;;5.68;2.92;;;3.40;99.90;;;;;;5014330;28;20048;-75
2021/11/29 07:44:55;;;;;;;4.85;2.53;;;3.50;99.90;;;;;;5014194;28;20441;-74
2021/11/29 07:47:21;;;;;;;10.98;3.38;;;3.50;99.90;;;;;;5012715;28;20030;-75
2021/11/29 07:49:47;;;;;;;8.63;3.60;;;3.50;99.90;;;;;;5013452;28;20424;-75
2021/11/29 07:52:14;;;;;;;6.63;3.80;;;3.50;99.90;;;;;;5013145;28;20018;-76
2021/11/29 07:54:41;;;;;;;4.78;2.28;;;3.60;99.90;;;;;;5014163;28;20049;-76
2021/11/29 07:57:07;;;;;;;6.90;2.78;;;3.60;99.90;;;;;;5013578;28;20466;-75
2021/11/29 07:59:34;;;;;;;10.07;2.83;;;3.70;99.90;;;;;;5014132;28;20064;-76
2021/11/29 08:01:59;;;;;;;7.22;2.17;;;3.70;99.90;;;;;;5013512;28;20022;-76
2021/11/29 08:04:26;;;;;;;10.65;2.88;;;3.80;99.90;;;;;;5014427;28;20029;-76
2021/11/29 08:06:52;;;;;;;4.43;2.08;;;3.80;99.90;;;;;;5013710;28;20471;-76
2021/11/29 08:09:17;;;;;;;7.15;2.65;;;3.90;99.90;;;;;;5014726;28;20048;-76
2021/11/29 08:11:43;;;;;;;5.40;2.58;;;3.90;99.90;;;;;;5014226;28;20022;-76
2021/11/29 08:14:09;;;;;;;9.55;2.33;;;4.00;99.90;;;;;;5013138;28;20022;-75
2021/11/29 08:16:35;;;;;;;4.10;2.08;;;4.00;99.90;;;;;;5012412;28;20489;-76
2021/11/29 08:19:00;;;;;;;5.47;2.00;;;4.00;99.90;;;;;;5011923;28;20026;-76
2021/11/29 08:21:26;;;;;;;3.95;2.20;;;4.10;99.90;;;;;;5013617;28;20026;-76
2021/11/29 08:23:51;;;;;;;8.38;2.33;;;4.00;99.90;;;;;;5012716;28;20050;-76
2021/11/29 08:26:17;;;;;;;5.70;2.28;;;4.10;99.90;;;;;;5013161;28;20061;-76
2021/11/29 08:28:43;;;;;;;6.45;2.35;;;4.10;99.90;;;;;;5013497;28;20021;-76
2021/11/29 08:31:09;;;;;;;4.85;1.85;;;4.20;99.90;;;;;;5012956;28;20387;-76
2021/11/29 08:33:34;;;;;;;4.25;1.77;;;4.20;99.90;;;;;;5013374;28;20025;-76
2021/11/29 08:36:00;;;;;;;5.03;1.85;;;4.20;99.90;;;;;;5012889;28;20394;-76
2021/11/29 08:38:26;;;;;;;2.65;1.60;;;4.30;99.90;;;;;;5011917;28;20116;-76
2021/11/29 08:40:52;;;;;;;3.65;1.80;;;4.30;99.90;;;;;;5012525;28;20463;-76
2021/11/29 08:43:19;;;;;;;2.72;1.48;;;4.30;99.90;;;;;;5012940;28;20033;-76
2021/11/29 08:45:48;;;;;;;2.55;1.50;;;4.30;99.90;;;;;;5012999;28;20057;-76
2021/11/29 08:48:14;;;;;;;2.60;1.63;;;4.40;99.90;;;;;;5011793;28;20040;-75
2021/11/29 08:50:45;;;;;;;3.80;1.40;;;4.40;99.90;;;;;;5011438;28;20030;-75
2021/11/29 08:53:13;;;;;;;2.70;1.58;;;4.30;99.90;;;;;;5011351;28;20425;-76
2021/11/29 08:55:39;;;;;;;6.38;1.80;;;4.20;99.90;;;;;;5012564;28;20089;-76
2021/11/29 08:58:07;;;;;;;6.10;1.65;;;4.10;99.90;;;;;;5011142;28;20545;-76
2021/11/29 09:00:34;;;;;;;9.07;1.73;;;4.10;99.90;;;;;;5012912;28;20084;-76
2021/11/29 09:03:03;;;;;;;3.85;1.23;;;4.00;99.90;;;;;;5011250;28;20022;-76
2021/11/29 09:05:29;;;;;;;2.78;1.50;;;4.00;99.90;;;;;;5011406;28;20029;-76
2021/11/29 09:07:55;;;;;;;4.38;1.85;;;4.00;99.90;;;;;;5012323;28;20046;-76
2021/11/29 09:10:23;;;;;;;5.68;1.77;;;4.00;99.90;;;;;;5012929;28;20022;-76
2021/11/29 09:12:49;;;;;;;2.78;1.85;;;4.00;99.90;;;;;;5011535;28;20026;-76
2021/11/29 09:15:19;;;;;;;3.33;1.63;;;4.00;99.90;;;;;;5012754;28;20053;-75
2021/11/29 09:17:45;;;;;;;5.75;1.20;;;4.00;99.90;;;;;;5012716;28;20034;-76
2021/11/29 09:20:14;;;;;;;3.08;1.40;;;4.10;99.90;;;;;;5011900;28;20084;-76
2021/11/29 09:22:41;;;;;;;5.22;1.73;;;4.20;99.90;;;;;;5012452;28;20098;-75
2021/11/29 09:25:08;;;;;;;2.65;1.40;;;4.30;99.90;;;;;;5010859;28;20113;-76
2021/11/29 09:27:34;;;;;;;6.82;1.67;;;4.40;99.90;;;;;;5011312;28;20022;-76
2021/11/29 09:30:00;;;;;;;7.47;1.80;;;4.50;99.90;;;;;;5012012;28;20116;-76
2021/11/29 09:32:26;;;;;;;1.75;1.02;;;4.60;99.90;;;;;;5012620;28;20478;-75
2021/11/29 09:34:51;;;;;;;2.55;1.08;;;4.70;99.90;;;;;;5012262;28;20026;-75
2021/11/29 09:37:21;;;;;;;3.40;1.10;;;4.70;99.90;;;;;;5012445;28;20358;-75
2021/11/29 09:39:47;;;;;;;6.53;1.63;;;4.90;99.90;;;;;;5012540;28;20026;-76
2021/11/29 09:42:13;;;;;;;6.15;1.65;;;4.90;99.90;;;;;;5012013;28;20030;-76
2021/11/29 09:44:39;;;;;;;3.78;1.27;;;5.00;99.90;;;;;;5012459;28;20025;-76
2021/11/29 09:47:05;;;;;;;4.78;1.38;;;5.10;99.90;;;;;;5011957;28;20421;-76
2021/11/29 09:49:31;;;;;;;4.80;1.10;;;5.20;99.90;;;;;;5011124;28;20072;-76
2021/11/29 09:51:59;;;;;;;6.78;1.40;;;5.30;99.90;;;;;;5011975;28;20376;-75
2021/11/29 09:54:24;;;;;;;2.92;1.50;;;5.30;99.90;;;;;;5012726;28;20029;-75
2021/11/29 09:56:53;;;;;;;2.22;1.55;;;5.30;99.90;;;;;;5012279;28;20486;-76
2021/11/29 09:59:23;;;;;;;3.08;1.30;;;5.30;99.90;;;;;;5012323;28;20025;-75
2021/11/29 10:01:51;;;;;;;3.85;1.60;;;5.40;99.90;;;;;;5012221;28;20072;-76
2021/11/29 10:04:17;;;;;;;4.03;1.20;;;5.50;99.90;;;;;;5011714;28;20022;-76
2021/11/29 10:06:46;;;;;;;2.70;1.40;;;5.50;99.90;;;;;;5012212;28;20030;-76
2021/11/29 10:09:34;;;;;;;2.45;1.30;;;5.60;99.90;;;;;;5010433;28;20382;-75
2021/11/29 10:12:20;;;;;;;2.05;1.20;;;5.70;99.90;;;;;;5011653;28;20022;-75
2021/11/29 10:15:21;;;;;;;3.40;1.38;;;5.70;99.90;;;;;;5012127;28;20505;-76
2021/11/29 10:18:02;;;;;;;3.08;1.23;;;5.70;99.90;;;;;;5014694;28;20076;-76
2021/11/29 10:20:31;;;;;;;2.05;1.33;;;5.70;99.90;;;;;;5016222;28;20028;-75
2021/11/29 10:23:08;;;;;;;3.42;1.10;;;5.70;99.90;;;;;;5015234;28;20056;-74
2021/11/29 10:25:41;;;;;;;3.50;1.23;;;5.70;99.90;;;;;;5015885;28;20116;-75
2021/11/29 10:28:23;;;;;;;3.25;1.50;;;5.70;99.90;;;;;;5013881;28;20034;-75
2021/11/29 10:31:15;;;;;;;2.28;1.50;;;5.70;99.90;;;;;;5015708;28;20022;-76
2021/11/29 10:33:55;;;;;;;4.40;1.42;;;5.70;99.90;;;;;;5015875;28;20022;-76
2021/11/29 10:36:22;;;;;;;3.45;1.25;;;5.80;99.90;;;;;;5015420;28;20117;-75
2021/11/29 10:39:01;;;;;;;2.95;1.25;;;5.80;99.90;;;;;;5014315;28;20446;-75
2021/11/29 10:41:50;;;;;;;3.85;1.10;;;5.70;99.90;;;;;;5014210;28;20045;-76
2021/11/29 10:44:20;;;;;;;1.88;1.17;;;5.70;99.90;;;;;;5015037;28;20585;-74
2021/11/29 10:46:49;;;;;;;1.08;1.00;;;5.70;99.90;;;;;;5015351;28;20149;-76
2021/11/29 10:49:17;;;;;;;2.70;1.20;;;5.80;99.90;;;;;;5013554;28;20029;-76
2021/11/29 10:51:47;;;;;;;3.63;1.20;;;5.90;99.90;;;;;;5014011;28;20406;-76
2021/11/29 10:54:16;;;;;;;2.42;1.25;;;6.00;99.90;;;;;;5015032;28;20060;-77
2021/11/29 10:56:44;;;;;;;2.35;1.17;;;6.00;99.90;;;;;;5015188;28;20056;-76
2021/11/29 10:59:13;;;;;;;2.17;1.27;;;5.90;99.90;;;;;;5014724;28;20057;-76
2021/11/29 11:01:39;;;;;;;2.03;1.20;;;5.80;99.90;;;;;;5015204;28;20102;-76
2021/11/29 11:04:08;;;;;;;2.28;1.83;;;5.70;99.90;;;;;;5013424;28;20120;-76
2021/11/29 11:06:56;;;;;;;1.48;1.10;;;5.60;99.90;;;;;;5013794;28;20040;-77
2021/11/29 11:09:28;;;;;;;5.15;1.35;;;5.70;99.90;;;;;;5014784;28;20459;-76
2021/11/29 11:11:59;;;;;;;2.97;1.30;;;5.80;99.90;;;;;;5014945;28;20109;-76
2021/11/29 11:14:28;;;;;;;2.22;1.30;;;6.00;99.90;;;;;;5013720;28;20029;-75
2021/11/29 11:17:07;;;;;;;2.15;1.38;;;6.10;99.90;;;;;;5014856;28;20412;-76
2021/11/29 11:19:41;;;;;;;4.25;1.20;;;6.30;99.90;;;;;;5015184;28;20061;-75
2021/11/29 11:22:11;;;;;;;3.47;1.48;;;6.40;99.90;;;;;;5014473;28;20044;-76
2021/11/29 11:25:00;;;;;;;3.20;1.80;;;6.50;99.90;;;;;;5013387;28;20049;-75
2021/11/29 11:27:30;;;;;;;3.22;1.40;;;6.80;99.90;;;;;;5006584;28;20045;-75
2021/11/29 11:30:00;;;;;;;2.20;1.30;;;6.80;99.90;;;;;;5014739;28;20050;-75
2021/11/29 11:32:33;;;;;;;2.10;1.45;;;6.90;99.90;;;;;;5014393;28;20093;-76
2021/11/29 11:35:12;;;;;;;1.77;1.25;;;6.90;99.90;;;;;;5014660;28;20029;-75
2021/11/29 11:37:43;;;;;;;5.15;1.60;;;6.90;99.90;;;;;;5012814;28;20072;-76
2021/11/29 11:40:12;;;;;;;3.50;1.30;;;6.90;99.90;;;;;;5014226;28;20022;-75
2021/11/29 11:42:38;;;;;;;3.28;1.40;;;7.00;99.90;;;;;;5014224;28;20546;-74
2021/11/29 11:45:10;;;;;;;2.97;1.45;;;6.90;99.90;;;;;;5012688;28;20061;-75
2021/11/29 11:47:37;;;;;;;3.53;1.80;;;7.00;99.90;;;;;;5014258;28;20022;-75
2021/11/29 11:50:04;;;;;;;4.13;1.85;;;7.10;99.90;;;;;;5012391;28;20151;-75
2021/11/29 11:52:31;;;;;;;2.15;1.48;;;7.10;99.90;;;;;;5014109;28;20022;-75
2021/11/29 11:54:58;;;;;;;3.85;1.40;;;7.10;99.90;;;;;;5012863;28;20022;-75
2021/11/29 11:57:25;;;;;;;2.45;1.30;;;7.00;99.90;;;;;;5013578;28;20462;-76
2021/11/29 11:59:59;;;;;;;4.45;1.50;;;7.00;99.90;;;;;;5014010;28;20489;-76
2021/11/29 12:02:52;;;;;;;3.60;1.60;;;7.00;99.90;;;;;;5013713;28;20033;-75
2021/11/29 12:05:25;;;;;;;3.42;2.33;;;7.10;99.90;;;;;;5002376;28;20026;-76
2021/11/29 12:07:52;;;;;;;2.95;1.77;;;7.20;99.90;;;;;;5013886;28;20432;-76
2021/11/29 12:10:36;;;;;;;5.57;2.10;;;7.30;99.90;;;;;;5013425;28;20459;-74
2021/11/29 12:13:10;;;;;;;6.60;2.15;;;7.50;99.90;;;;;;5013827;28;20489;-75
2021/11/29 12:15:50;;;;;;;5.13;2.10;;;7.60;99.90;;;;;;5012542;28;20418;-75
2021/11/29 12:18:39;;;;;;;4.22;1.85;;;7.50;99.90;;;;;;5011908;28;20578;-75
2021/11/29 12:21:18;;;;;;;3.47;1.50;;;7.60;99.90;;;;;;5013038;28;20105;-75
2021/11/29 12:23:53;;;;;;;4.72;2.08;;;7.50;99.90;;;;;;5012091;28;20045;-75
2021/11/29 12:26:48;;;;;;;3.30;2.03;;;7.50;99.90;;;;;;5013276;28;20141;-76
2021/11/29 12:29:20;;;;;;;4.68;1.95;;;7.30;99.90;;;;;;5011616;28;20386;-75
2021/11/29 12:31:51;;;;;;;3.65;2.08;;;7.20;99.90;;;;;;5013475;28;20061;-75
2021/11/29 12:34:52;;;;;;;3.90;2.25;;;7.10;99.90;;;;;;5013126;28;20044;-75
2021/11/29 12:37:40;;;;;;;4.15;1.95;;;7.00;99.90;;;;;;5011603;28;20029;-75
2021/11/29 12:40:12;;;;;;;4.30;2.05;;;6.90;99.90;;;;;;5012607;28;20018;-75
2021/11/29 12:42:37;;;;;;;4.85;1.92;;;6.80;99.90;;;;;;5013315;28;20021;-73
2021/11/29 12:45:03;;;;;;;3.53;1.80;;;6.70;99.90;;;;;;5012165;28;20037;-77
2021/11/29 12:47:32;;;;;;;4.65;1.90;;;6.60;99.90;;;;;;5012545;28;20037;-76
2021/11/29 12:50:05;;;;;;;4.28;2.10;;;6.60;99.90;;;;;;5011830;28;20426;-75
2021/11/29 12:52:41;;;;;;;4.10;2.08;;;6.50;99.90;;;;;;5013185;28;20022;-75
2021/11/29 12:55:18;;;;;;;5.47;2.10;;;6.60;99.90;;;;;;5012393;28;20486;-75
2021/11/29 12:57:46;;;;;;;4.32;2.22;;;6.60;99.90;;;;;;5012939;28;20034;-75
2021/11/29 13:00:25;;;;;;;4.60;2.15;;;6.60;99.90;;;;;;5012503;28;20029;-75
2021/11/29 13:02:57;;;;;;;3.53;2.05;;;6.60;99.90;;;;;;5012922;28;20523;-76